createdAt,value
2018-09-04T00:01:34.742Z,10.77
2018-09-04T00:04:02.444Z,10.82
2018-09-04T00:06:30.171Z,10.83
2018-09-04T00:08:57.860Z,10.86
2018-09-04T00:11:25.560Z,10.89
2018-09-04T00:13:53.260Z,10.92
2018-09-04T00:16:21.324Z,10.95
2018-09-04T00:18:49.012Z,10.99
2018-09-04T00:21:16.699Z,11.04
2018-09-04T00:23:44.399Z,11.09
2018-09-04T00:26:12.052Z,11.19
2018-09-04T00:28:39.716Z,11.22
2018-09-04T00:31:07.403Z,11.33
2018-09-04T00:33:35.124Z,11.39
2018-09-04T00:36:02.822Z,11.41
2018-09-04T00:38:30.561Z,11.50
2018-09-04T00:40:58.255Z,11.55
2018-09-04T00:43:25.942Z,11.62
2018-09-04T00:45:53.642Z,11.73
2018-09-04T00:48:21.443Z,11.73
2018-09-04T00:50:50.044Z,11.77
2018-09-04T00:53:17.732Z,11.83
2018-09-04T00:55:45.455Z,11.89
2018-09-04T00:58:13.325Z,11.96
2018-09-04T01:00:41.080Z,12.02
2018-09-04T01:03:08.753Z,12.04
2018-09-04T01:05:36.468Z,12.06
2018-09-04T01:08:04.216Z,12.06
2018-09-04T01:10:31.885Z,12.09
2018-09-04T01:12:59.591Z,12.14
2018-09-04T01:15:27.319Z,12.16
2018-09-04T01:17:54.989Z,12.15
2018-09-04T01:20:22.760Z,12.16
2018-09-04T01:22:50.492Z,12.17
2018-09-04T01:25:18.192Z,12.18
2018-09-04T01:27:45.851Z,12.18
2018-09-04T01:30:13.560Z,12.19
2018-09-04T01:32:41.235Z,12.21
2018-09-04T01:35:08.951Z,12.23
2018-09-04T01:37:36.624Z,12.19
2018-09-04T01:40:04.400Z,12.19
2018-09-04T01:42:32.118Z,12.15
2018-09-04T01:44:59.846Z,12.20
2018-09-04T01:47:27.516Z,12.22
2018-09-04T01:49:55.211Z,12.22
2018-09-04T01:52:23.015Z,12.20
2018-09-04T01:54:50.699Z,12.18
2018-09-04T01:57:18.375Z,12.18
2018-09-04T01:59:46.081Z,12.18
2018-09-04T02:02:13.767Z,12.19
2018-09-04T02:04:41.468Z,12.19
2018-09-04T02:07:09.154Z,12.17
2018-09-04T02:09:36.864Z,12.16
2018-09-04T02:12:04.567Z,12.17
2018-09-04T02:14:32.287Z,12.16
2018-09-04T02:16:59.967Z,12.18
2018-09-04T02:19:27.635Z,12.16
2018-09-04T02:21:55.355Z,12.15
2018-09-04T02:24:23.039Z,12.13
2018-09-04T02:26:50.692Z,12.11
2018-09-04T02:29:18.379Z,12.07
2018-09-04T02:31:46.071Z,12.06
2018-09-04T02:34:13.792Z,12.01
2018-09-04T02:36:41.540Z,11.98
2018-09-04T02:39:10.940Z,12.00
2018-09-04T02:41:38.613Z,12.01
2018-09-04T02:44:06.619Z,12.01
2018-09-04T02:46:34.760Z,11.96
2018-09-04T02:49:02.447Z,11.95
2018-09-04T02:51:30.134Z,11.97
2018-09-04T02:53:58.089Z,11.96
2018-09-04T02:56:25.787Z,11.94
2018-09-04T02:58:53.591Z,11.91
2018-09-04T03:01:21.329Z,11.88
2018-09-04T03:03:49.012Z,11.83
2018-09-04T03:06:16.683Z,11.78
2018-09-04T03:08:44.424Z,11.74
2018-09-04T03:11:12.093Z,11.69
2018-09-04T03:13:39.762Z,11.58
2018-09-04T03:16:07.616Z,11.52
2018-09-04T03:18:35.300Z,11.50
2018-09-04T03:21:02.993Z,11.50
2018-09-04T03:23:30.707Z,11.45
2018-09-04T03:25:58.424Z,11.41
2018-09-04T03:28:26.111Z,11.37
2018-09-04T03:30:53.905Z,11.35
2018-09-04T03:33:21.602Z,11.35
2018-09-04T03:35:49.291Z,11.29
2018-09-04T03:38:17.073Z,11.22
2018-09-04T03:40:44.766Z,11.15
2018-09-04T03:43:12.439Z,11.11
2018-09-04T03:45:40.134Z,11.09
2018-09-04T03:48:08.628Z,11.02
2018-09-04T03:50:36.947Z,11.01
2018-09-04T03:53:04.816Z,10.95
2018-09-04T03:55:32.502Z,10.89
2018-09-04T03:58:00.228Z,10.87
2018-09-04T04:00:27.891Z,10.81
2018-09-04T04:02:55.609Z,10.76
2018-09-04T04:05:23.307Z,10.67
2018-09-04T04:07:51.004Z,10.63
2018-09-04T04:10:18.763Z,10.62
2018-09-04T04:12:46.482Z,10.59
2018-09-04T04:15:14.163Z,10.54
2018-09-04T04:17:41.907Z,10.51
2018-09-04T04:20:09.716Z,10.48
2018-09-04T04:22:37.393Z,10.47
2018-09-04T04:25:05.199Z,10.42
2018-09-04T04:27:32.891Z,10.37
2018-09-04T04:30:00.639Z,10.31
2018-09-04T04:32:28.408Z,10.29
2018-09-04T04:34:56.240Z,10.32
2018-09-04T04:37:23.973Z,10.39
2018-09-04T04:39:51.707Z,10.43
2018-09-04T04:42:19.383Z,10.45
2018-09-04T04:44:47.084Z,10.51
2018-09-04T04:47:14.880Z,10.60
2018-09-04T04:49:42.552Z,10.74
2018-09-04T04:52:10.324Z,10.84
2018-09-04T04:54:38.040Z,10.87
2018-09-04T04:57:05.736Z,10.94
2018-09-04T04:59:33.451Z,10.88
2018-09-04T05:02:01.163Z,10.86
2018-09-04T05:04:28.831Z,10.90
2018-09-04T05:06:56.620Z,11.10
2018-09-04T05:09:24.375Z,11.21
2018-09-04T05:11:52.039Z,11.64
2018-09-04T05:14:19.732Z,11.88
2018-09-04T05:16:47.427Z,12.23
2018-09-04T05:19:15.148Z,12.62
2018-09-04T05:21:42.847Z,12.93
2018-09-04T05:24:10.572Z,13.09
2018-09-04T05:26:38.280Z,13.37
2018-09-04T05:29:06.050Z,13.77
2018-09-04T05:31:38.395Z,13.95
2018-09-04T05:34:06.210Z,13.39
2018-09-04T05:36:33.895Z,13.13
2018-09-04T05:39:01.631Z,13.06
2018-09-04T05:41:29.349Z,13.50
2018-09-04T05:43:58.867Z,13.99
2018-09-04T05:46:57.372Z,14.27
2018-09-04T05:49:28.215Z,14.55
2018-09-04T05:51:55.964Z,14.39
2018-09-04T05:54:23.788Z,14.24
2018-09-04T05:56:51.556Z,14.11
2018-09-04T05:59:19.304Z,14.31
2018-09-04T06:01:46.984Z,14.76
2018-09-04T06:04:14.728Z,15.04
2018-09-04T06:06:42.412Z,15.30
2018-09-04T06:09:10.157Z,15.30
2018-09-04T06:11:37.843Z,15.08
2018-09-04T06:14:05.580Z,14.87
2018-09-04T06:16:33.272Z,14.80
2018-09-04T06:19:01.007Z,15.00
2018-09-04T06:21:28.708Z,15.01
2018-09-04T06:23:56.464Z,15.23
2018-09-04T06:26:24.181Z,15.57
2018-09-04T06:28:51.897Z,15.86
2018-09-04T06:31:19.632Z,15.98
2018-09-04T06:33:47.324Z,16.25
2018-09-04T06:36:15.052Z,16.29
2018-09-04T06:38:42.812Z,16.33
2018-09-04T06:41:10.520Z,16.47
2018-09-04T06:43:38.235Z,16.67
2018-09-04T06:46:05.983Z,16.94
2018-09-04T06:48:34.220Z,16.93
2018-09-04T06:51:01.915Z,17.26
2018-09-04T06:53:29.628Z,17.65
2018-09-04T06:55:57.361Z,17.93
2018-09-04T06:58:25.924Z,17.92
2018-09-04T07:00:53.672Z,18.00
2018-09-04T07:03:21.360Z,18.02
2018-09-04T07:05:49.116Z,18.42
2018-09-04T07:08:16.876Z,18.89
2018-09-04T07:10:44.588Z,19.13
2018-09-04T07:13:12.328Z,19.26
2018-09-04T07:15:40.025Z,19.50
2018-09-04T07:18:07.766Z,19.84
2018-09-04T07:20:35.552Z,19.81
2018-09-04T07:23:03.296Z,19.75
2018-09-04T07:25:30.977Z,19.98
2018-09-04T07:27:58.709Z,20.16
2018-09-04T07:30:26.408Z,20.26
2018-09-04T07:32:54.314Z,20.02
2018-09-04T07:35:22.349Z,19.88
2018-09-04T07:37:50.052Z,20.27
2018-09-04T07:40:17.836Z,20.73
2018-09-04T07:42:45.535Z,20.95
2018-09-04T07:45:13.228Z,20.75
2018-09-04T07:47:41.011Z,20.52
2018-09-04T07:50:09.572Z,20.31
2018-09-04T07:52:37.299Z,20.07
2018-09-04T07:55:05.134Z,19.76
2018-09-04T07:57:32.856Z,19.70
2018-09-04T08:00:00.577Z,19.59
2018-09-04T08:02:28.348Z,19.84
2018-09-04T08:04:56.051Z,20.34
2018-09-04T08:07:23.750Z,20.89
2018-09-04T08:09:51.496Z,21.30
2018-09-04T08:12:19.247Z,21.29
2018-09-04T08:14:47.048Z,21.86
2018-09-04T08:17:14.788Z,22.11
2018-09-04T08:19:42.520Z,22.45
2018-09-04T08:22:10.268Z,23.12
2018-09-04T08:24:37.987Z,23.18
2018-09-04T08:27:06.028Z,23.23
2018-09-04T08:29:33.768Z,23.22
2018-09-04T08:32:01.444Z,22.84
2018-09-04T08:34:29.203Z,22.36
2018-09-04T08:36:56.953Z,22.17
2018-09-04T08:39:24.644Z,21.94
2018-09-04T08:41:52.386Z,21.80
2018-09-04T08:44:20.136Z,21.87
2018-09-04T08:46:47.840Z,22.41
2018-09-04T08:49:16.524Z,23.09
2018-09-04T08:51:44.222Z,23.52
2018-09-04T08:54:11.981Z,23.81
2018-09-04T08:56:39.676Z,23.74
2018-09-04T08:59:07.368Z,23.77
2018-09-04T09:01:35.077Z,23.80
2018-09-04T09:04:02.805Z,24.16
2018-09-04T09:06:30.539Z,24.22
2018-09-04T09:08:58.228Z,24.23
2018-09-04T09:11:25.944Z,24.54
2018-09-04T09:13:53.656Z,24.09
2018-09-04T09:16:21.355Z,24.00
2018-09-04T09:18:49.103Z,24.04
2018-09-04T09:21:16.840Z,24.36
2018-09-04T09:23:44.528Z,24.70
2018-09-04T09:26:12.312Z,24.79
2018-09-04T09:28:40.035Z,24.63
2018-09-04T09:31:07.788Z,24.97
2018-09-04T09:33:35.517Z,25.23
2018-09-04T09:36:03.231Z,25.41
2018-09-04T09:38:30.961Z,24.58
2018-09-04T09:40:58.701Z,24.65
2018-09-04T09:43:26.551Z,24.64
2018-09-04T09:45:54.257Z,24.87
2018-09-04T09:48:22.040Z,25.31
2018-09-04T09:50:49.773Z,25.48
2018-09-04T09:53:17.606Z,25.68
2018-09-04T09:55:45.312Z,25.87
2018-09-04T09:58:13.000Z,26.05
2018-09-04T10:00:46.288Z,26.26
2018-09-04T10:03:20.295Z,26.25
2018-09-04T10:05:48.067Z,26.32
2018-09-04T10:08:15.771Z,25.86
2018-09-04T10:10:43.564Z,25.91
2018-09-04T10:13:11.323Z,25.92
2018-09-04T10:15:39.076Z,26.29
2018-09-04T10:18:06.776Z,26.19
2018-09-04T10:20:34.516Z,26.32
2018-09-04T10:23:02.307Z,26.66
2018-09-04T10:25:30.032Z,26.76
2018-09-04T10:27:57.752Z,26.83
2018-09-04T10:30:25.505Z,26.51
2018-09-04T10:32:54.035Z,25.89
2018-09-04T10:35:22.363Z,25.78
2018-09-04T10:37:50.789Z,25.64
2018-09-04T10:40:24.423Z,25.44
2018-09-04T10:42:52.420Z,25.40
2018-09-04T10:45:25.617Z,25.29
2018-09-04T10:47:53.730Z,25.12
2018-09-04T10:50:21.893Z,25.12
2018-09-04T10:52:49.740Z,25.35
2018-09-04T10:55:17.565Z,25.78
2018-09-04T10:57:45.458Z,26.14
2018-09-04T11:00:14.344Z,26.18
2018-09-04T11:02:42.157Z,26.18
2018-09-04T11:05:09.996Z,26.51
2018-09-04T11:07:37.773Z,26.89
2018-09-04T11:10:05.618Z,26.85
2018-09-04T11:12:33.416Z,26.14
2018-09-04T11:15:01.156Z,25.63
2018-09-04T11:17:28.860Z,25.19
2018-09-04T11:19:56.593Z,24.75
2018-09-04T11:22:24.374Z,24.60
2018-09-04T11:24:52.116Z,24.44
2018-09-04T11:27:19.815Z,24.36
2018-09-04T11:29:47.516Z,24.16
2018-09-04T11:32:15.274Z,24.13
2018-09-04T11:34:43.019Z,23.97
2018-09-04T11:37:10.788Z,23.87
2018-09-04T11:39:38.548Z,23.82
2018-09-04T11:42:06.449Z,23.79
2018-09-04T11:44:34.163Z,24.32
2018-09-04T11:47:03.153Z,24.31
2018-09-04T11:49:30.728Z,24.16
2018-09-04T11:51:58.531Z,23.76
2018-09-04T11:54:26.328Z,23.50
2018-09-04T11:56:54.092Z,23.20
2018-09-04T11:59:21.914Z,22.88
2018-09-04T12:01:53.355Z,22.74
2018-09-04T12:04:21.072Z,22.71
2018-09-04T12:06:48.807Z,22.72
2018-09-04T12:09:16.715Z,22.77
2018-09-04T12:11:51.952Z,22.73
2018-09-04T12:14:19.685Z,22.72
2018-09-04T12:16:47.369Z,22.47
2018-09-04T12:19:15.147Z,22.41
2018-09-04T12:21:42.860Z,22.35
2018-09-04T12:24:10.632Z,22.07
2018-09-04T12:26:38.355Z,22.01
2018-09-04T12:29:06.433Z,21.94
2018-09-04T12:31:34.269Z,21.95
2018-09-04T12:34:02.171Z,21.94
2018-09-04T12:36:29.849Z,21.79
2018-09-04T12:38:57.741Z,21.62
2018-09-04T12:41:25.512Z,21.73
2018-09-04T12:43:53.248Z,21.61
2018-09-04T12:46:20.957Z,21.66
2018-09-04T12:48:50.732Z,21.41
2018-09-04T12:51:18.512Z,21.31
2018-09-04T12:53:46.469Z,21.42
2018-09-04T12:56:14.240Z,21.25
2018-09-04T12:58:41.997Z,21.10
2018-09-04T13:01:09.826Z,21.12
2018-09-04T13:03:37.616Z,21.01
2018-09-04T13:06:05.453Z,20.98
2018-09-04T13:08:33.643Z,20.74
2018-09-04T13:11:01.352Z,20.67
2018-09-04T13:13:29.164Z,20.70
2018-09-04T13:15:58.407Z,20.65
2018-09-04T13:18:27.125Z,20.59
2018-09-04T13:21:01.705Z,20.61
2018-09-04T13:23:29.923Z,20.60
2018-09-04T13:25:57.661Z,20.67
2018-09-04T13:28:25.484Z,20.60
2018-09-04T13:30:53.319Z,20.58
2018-09-04T13:33:21.013Z,20.57
2018-09-04T13:35:48.738Z,20.50
2018-09-04T13:38:16.503Z,20.53
2018-09-04T13:40:44.265Z,20.47
2018-09-04T13:43:12.036Z,20.44
2018-09-04T13:45:39.792Z,20.32
2018-09-04T13:48:07.527Z,20.27
2018-09-04T13:50:35.281Z,20.21
2018-09-04T13:53:03.043Z,20.10
2018-09-04T13:55:30.771Z,19.83
2018-09-04T13:57:58.508Z,19.74
2018-09-04T14:00:26.632Z,19.72
2018-09-04T14:02:54.415Z,19.75
2018-09-04T14:05:22.118Z,19.79
2018-09-04T14:07:49.823Z,19.75
2018-09-04T14:10:17.602Z,19.79
2018-09-04T14:12:45.321Z,19.71
2018-09-04T14:15:13.069Z,19.44
2018-09-04T14:17:40.828Z,19.45
2018-09-04T14:20:08.559Z,19.55
2018-09-04T14:22:36.339Z,19.71
2018-09-04T14:25:04.148Z,19.85
2018-09-04T14:27:31.863Z,19.90
2018-09-04T14:30:16.349Z,19.89
2018-09-04T14:32:27.392Z,19.74
2018-09-04T14:34:55.108Z,19.63
2018-09-04T14:37:22.856Z,19.26
2018-09-04T14:39:55.593Z,19.32
2018-09-04T14:42:18.320Z,19.44
2018-09-04T14:44:46.043Z,19.42
2018-09-04T14:47:13.873Z,19.21
2018-09-04T14:49:41.589Z,19.12
2018-09-04T14:52:09.284Z,19.15
2018-09-04T14:54:37.063Z,18.97
2018-09-04T14:57:04.848Z,18.94
2018-09-04T14:59:32.658Z,18.97
2018-09-04T15:02:00.428Z,18.98
2018-09-04T15:04:28.144Z,18.88
2018-09-04T15:06:55.860Z,18.73
2018-09-04T15:09:23.616Z,18.77
2018-09-04T15:11:51.319Z,18.80
2018-09-04T15:14:19.039Z,18.79
2018-09-04T15:16:46.969Z,18.69
2018-09-04T15:19:14.655Z,18.69
2018-09-04T15:21:42.389Z,18.70
2018-09-04T15:24:10.133Z,18.61
2018-09-04T15:26:37.837Z,18.55
2018-09-04T15:29:05.540Z,18.35
2018-09-04T15:31:33.344Z,18.07
2018-09-04T15:34:01.088Z,17.87
2018-09-04T15:36:28.919Z,17.78
2018-09-04T15:38:56.624Z,17.58
2018-09-04T15:41:24.359Z,17.53
2018-09-04T15:43:52.085Z,17.49
2018-09-04T15:46:19.810Z,17.22
2018-09-04T15:48:52.055Z,17.01
2018-09-04T15:51:19.760Z,16.88
2018-09-04T15:53:47.478Z,16.92
2018-09-04T15:56:15.265Z,16.86
2018-09-04T15:58:42.939Z,16.77
2018-09-04T16:01:10.655Z,16.66
2018-09-04T16:03:38.401Z,16.61
2018-09-04T16:06:05.892Z,16.59
2018-09-04T16:08:33.617Z,16.48
2018-09-04T16:11:01.393Z,16.48
2018-09-04T16:13:29.092Z,16.41
2018-09-04T16:15:56.845Z,16.41
2018-09-04T16:18:24.627Z,16.42
2018-09-04T16:20:52.354Z,16.35
2018-09-04T16:23:20.076Z,16.24
2018-09-04T16:25:47.880Z,16.18
2018-09-04T16:28:15.579Z,16.10
2018-09-04T16:30:43.312Z,15.98
2018-09-04T16:33:11.081Z,15.90
2018-09-04T16:35:38.883Z,15.83
2018-09-04T16:38:06.590Z,15.74
2018-09-04T16:40:41.011Z,15.70
2018-09-04T16:43:08.692Z,15.63
2018-09-04T16:45:36.400Z,15.60
2018-09-04T16:48:04.185Z,15.57
2018-09-04T16:50:31.900Z,15.53
2018-09-04T16:52:59.600Z,15.54
2018-09-04T16:55:27.312Z,15.51
2018-09-04T16:57:55.067Z,15.51
2018-09-04T17:00:22.773Z,15.49
2018-09-04T17:02:50.556Z,15.48
2018-09-04T17:05:18.277Z,15.37
2018-09-04T17:07:46.018Z,15.41
2018-09-04T17:10:13.748Z,15.42
2018-09-04T17:12:41.471Z,15.37
2018-09-04T17:15:09.264Z,15.32
2018-09-04T17:17:37.026Z,15.27
2018-09-04T17:20:05.026Z,15.29
2018-09-04T17:22:32.818Z,15.31
2018-09-04T17:25:00.580Z,15.32
2018-09-04T17:27:28.300Z,15.34
2018-09-04T17:29:55.997Z,15.30
2018-09-04T17:32:23.787Z,15.22
2018-09-04T17:34:51.499Z,15.15
2018-09-04T17:37:19.430Z,15.11
2018-09-04T17:39:47.452Z,15.05
2018-09-04T17:42:15.171Z,15.01
2018-09-04T17:44:42.927Z,14.99
2018-09-04T17:47:10.618Z,14.91
2018-09-04T17:49:38.380Z,14.87
2018-09-04T17:52:06.168Z,14.82
2018-09-04T17:54:33.940Z,14.77
2018-09-04T17:57:01.651Z,14.78
2018-09-04T17:59:29.343Z,14.77
2018-09-04T18:01:57.096Z,14.76
2018-09-04T18:04:24.824Z,14.77
2018-09-04T18:06:52.564Z,14.77
2018-09-04T18:09:20.287Z,14.76
2018-09-04T18:11:48.090Z,14.74
2018-09-04T18:14:15.800Z,14.73
2018-09-04T18:16:43.581Z,14.73
2018-09-04T18:19:11.328Z,14.71
2018-09-04T18:21:39.194Z,14.72
2018-09-04T18:24:07.036Z,14.68
2018-09-04T18:26:34.900Z,14.67
2018-09-04T18:29:02.664Z,14.69
2018-09-04T18:31:30.392Z,14.70
2018-09-04T18:33:58.128Z,14.70
2018-09-04T18:36:25.816Z,14.66
2018-09-04T18:38:53.688Z,14.63
2018-09-04T18:41:21.347Z,14.60
2018-09-04T18:43:49.068Z,14.62
2018-09-04T18:46:16.772Z,14.60
2018-09-04T18:48:44.595Z,14.58
2018-09-04T18:51:12.304Z,14.54
2018-09-04T18:53:40.085Z,14.52
2018-09-04T18:56:07.812Z,14.53
2018-09-04T18:58:35.561Z,14.52
2018-09-04T19:01:03.324Z,14.54
2018-09-04T19:03:31.044Z,14.49
2018-09-04T19:05:58.792Z,14.49
2018-09-04T19:08:26.509Z,14.47
2018-09-04T19:10:54.219Z,14.47
2018-09-04T19:13:22.006Z,14.42
2018-09-04T19:15:49.708Z,14.38
2018-09-04T19:18:17.449Z,14.35
2018-09-04T19:20:45.209Z,14.33
2018-09-04T19:23:12.918Z,14.29
2018-09-04T19:25:40.638Z,14.25
2018-09-04T19:28:08.372Z,14.23
2018-09-04T19:30:36.108Z,14.21
2018-09-04T19:33:03.879Z,14.15
2018-09-04T19:35:31.612Z,14.13
2018-09-04T19:37:59.331Z,14.10
2018-09-04T19:40:27.070Z,14.06
2018-09-04T19:42:54.778Z,14.04
2018-09-04T19:45:22.623Z,13.99
2018-09-04T19:47:50.383Z,13.97
2018-09-04T19:50:18.222Z,13.96
2018-09-04T19:52:45.934Z,13.92
2018-09-04T19:55:13.708Z,13.88
2018-09-04T19:57:41.363Z,13.82
2018-09-04T20:00:09.700Z,13.72
2018-09-04T20:02:37.448Z,13.65
2018-09-04T20:05:05.781Z,13.54
2018-09-04T20:07:33.498Z,13.45
2018-09-04T20:10:01.235Z,13.33
2018-09-04T20:12:28.944Z,13.33
2018-09-04T20:14:56.701Z,13.23
2018-09-04T20:17:24.468Z,13.13
2018-09-04T20:19:53.317Z,13.07
2018-09-04T20:22:21.058Z,12.98
2018-09-04T20:24:48.799Z,12.97
2018-09-04T20:27:16.502Z,12.97
2018-09-04T20:29:54.061Z,12.98
2018-09-04T20:32:21.868Z,12.97
2018-09-04T20:34:49.582Z,12.98
2018-09-04T20:37:17.440Z,13.00
2018-09-04T20:39:46.192Z,12.99
2018-09-04T20:42:13.968Z,12.98
2018-09-04T20:44:41.682Z,12.99
2018-09-04T20:47:09.495Z,12.98
2018-09-04T20:49:37.216Z,12.95
2018-09-04T20:52:04.956Z,12.91
2018-09-04T20:54:32.712Z,12.88
2018-09-04T20:57:35.800Z,12.82
2018-09-04T21:00:16.538Z,12.78
2018-09-04T21:02:55.700Z,12.74
2018-09-04T21:05:34.691Z,12.70
2018-09-04T21:08:17.998Z,12.68
2018-09-04T21:10:46.598Z,12.67
2018-09-04T21:13:14.760Z,12.64
2018-09-04T21:15:42.641Z,12.64
2018-09-04T21:18:10.523Z,12.62
2018-09-04T21:20:38.455Z,12.58
2018-09-04T21:23:06.327Z,12.56
2018-09-04T21:25:34.072Z,12.55
2018-09-04T21:28:01.798Z,12.54
2018-09-04T21:30:29.580Z,12.51
2018-09-04T21:32:57.320Z,12.45
2018-09-04T21:35:25.454Z,12.41
2018-09-04T21:37:53.253Z,12.44
2018-09-04T21:40:20.942Z,12.43
2018-09-04T21:42:48.689Z,12.41
2018-09-04T21:45:16.421Z,12.38
2018-09-04T21:47:44.150Z,12.36
2018-09-04T21:50:11.953Z,12.32
2018-09-04T21:52:39.679Z,12.30
2018-09-04T21:55:07.487Z,12.28
2018-09-04T21:57:35.216Z,12.24
2018-09-04T22:00:03.016Z,12.19
2018-09-04T22:02:30.704Z,12.15
2018-09-04T22:04:58.416Z,12.09
2018-09-04T22:07:26.126Z,12.03
2018-09-04T22:09:53.831Z,12.00
2018-09-04T22:12:21.615Z,11.95
2018-09-04T22:14:49.407Z,11.87
2018-09-04T22:17:17.106Z,11.83
2018-09-04T22:19:44.776Z,11.77
2018-09-04T22:22:13.126Z,11.70
2018-09-04T22:24:40.828Z,11.64
2018-09-04T22:27:09.712Z,11.58
2018-09-04T22:29:40.964Z,11.54
2018-09-04T22:32:08.995Z,11.50
2018-09-04T22:34:36.708Z,11.47
2018-09-04T22:37:04.460Z,11.45
2018-09-04T22:39:32.264Z,11.41
2018-09-04T22:41:59.962Z,11.37
2018-09-04T22:44:28.003Z,11.32
2018-09-04T22:46:55.750Z,11.30
2018-09-04T22:49:23.497Z,11.26
2018-09-04T22:51:51.409Z,11.20
2018-09-04T22:54:19.117Z,11.14
2018-09-04T22:56:46.870Z,11.06
2018-09-04T22:59:14.552Z,10.96
2018-09-04T23:01:42.252Z,10.88
2018-09-04T23:04:09.972Z,10.82
2018-09-04T23:06:37.713Z,10.72
2018-09-04T23:09:06.636Z,10.63
2018-09-04T23:11:34.347Z,10.54
2018-09-04T23:14:02.088Z,10.45
2018-09-04T23:16:29.921Z,10.38
2018-09-04T23:18:57.617Z,10.37
2018-09-04T23:21:25.302Z,10.31
2018-09-04T23:23:53.109Z,10.23
2018-09-04T23:26:20.875Z,10.22
2018-09-04T23:28:48.576Z,10.18
2018-09-04T23:31:16.288Z,10.15
2018-09-04T23:33:43.991Z,10.14
2018-09-04T23:36:18.508Z,10.10
2018-09-04T23:38:46.393Z,10.06
2018-09-04T23:41:14.096Z,10.08
2018-09-04T23:43:41.792Z,10.07
2018-09-04T23:46:09.478Z,10.08
2018-09-04T23:48:37.232Z,10.10
2018-09-04T23:51:05.091Z,10.11
2018-09-04T23:53:32.789Z,10.09
2018-09-04T23:56:00.519Z,10.08
2018-09-04T23:58:28.226Z,10.07
